Terminal Aerodrome Forecast
Issued by NWS Cleveland, OH

Home | Current Version | Previous Version | Text Only | Print | Product List | Glossary On
Versions: 1 2 3 4 5 6 7 8 9 10 11 12 13 14 15 16 17 18 19 20 21 22 23 24 25 26
000
FTUS41 KCLE 112300
TAFCLE
TAF
KCLE 112329Z 1200/1306 01005KT P6SM BKN250
     FM120200 VRB03KT P6SM BKN150
     FM120600 15003KT P6SM SCT250
     FM121500 22008KT P6SM SCT050 BKN250
     FM122200 22010KT P6SM SCT050 BKN120
     FM130200 20006KT P6SM VCSH OVC100=

USA.gov is the U.S. government's official web portal to all federal, state and local government web resources and services.